createdAt,value
2019-06-01T00:02:01.839Z,17.71
2019-06-01T00:07:04.314Z,17.58
2019-06-01T00:12:06.832Z,17.53
2019-06-01T00:17:09.265Z,17.50
2019-06-01T00:22:11.735Z,17.42
2019-06-01T00:27:14.191Z,17.38
2019-06-01T00:32:16.670Z,17.54
2019-06-01T00:37:19.122Z,17.59
2019-06-01T00:42:21.589Z,17.62
2019-06-01T00:47:24.059Z,17.82
2019-06-01T00:52:26.513Z,17.96
2019-06-01T00:57:28.964Z,18.01
2019-06-01T01:02:31.408Z,17.87
2019-06-01T01:07:33.876Z,17.63
2019-06-01T01:12:36.323Z,17.54
2019-06-01T01:17:38.791Z,17.49
2019-06-01T01:22:41.282Z,17.46
2019-06-01T01:27:43.747Z,17.41
2019-06-01T01:32:47.380Z,17.25
2019-06-01T01:37:49.944Z,17.33
2019-06-01T01:42:52.271Z,17.20
2019-06-01T01:47:53.589Z,17.23
2019-06-01T01:52:57.019Z,17.08
2019-06-01T01:57:59.545Z,16.92
2019-06-01T02:03:02.291Z,16.92
2019-06-01T02:08:03.430Z,16.79
2019-06-01T02:13:05.891Z,16.77
2019-06-01T02:18:08.359Z,16.73
2019-06-01T02:23:10.835Z,16.69
2019-06-01T02:28:13.304Z,16.63
2019-06-01T02:33:15.757Z,16.53
2019-06-01T02:38:18.222Z,16.44
2019-06-01T02:43:20.664Z,16.28
2019-06-01T02:48:23.125Z,16.16
2019-06-01T02:53:25.573Z,16.05
2019-06-01T02:58:28.039Z,16.05
2019-06-01T03:03:30.503Z,15.96
2019-06-01T03:08:32.956Z,15.94
2019-06-01T03:13:35.566Z,15.93
2019-06-01T03:18:38.030Z,15.83
2019-06-01T03:23:40.496Z,15.71
2019-06-01T03:28:42.974Z,15.73
2019-06-01T03:33:45.445Z,15.78
2019-06-01T03:38:47.917Z,15.80
2019-06-01T03:43:50.423Z,15.84
2019-06-01T03:48:52.905Z,16.00
2019-06-01T03:53:55.380Z,16.21
2019-06-01T03:58:57.899Z,16.44
2019-06-01T04:04:00.932Z,16.64
2019-06-01T04:09:03.528Z,16.86
2019-06-01T04:14:05.601Z,17.15
2019-06-01T04:19:08.043Z,17.43
2019-06-01T04:24:10.325Z,17.55
2019-06-01T04:29:12.715Z,17.75
2019-06-01T04:34:15.097Z,17.97
2019-06-01T04:39:17.546Z,18.14
2019-06-01T04:44:20.002Z,18.36
2019-06-01T04:49:22.470Z,18.61
2019-06-01T04:54:24.949Z,18.75
2019-06-01T04:59:27.401Z,18.89
2019-06-01T05:04:29.866Z,18.97
2019-06-01T05:09:32.331Z,19.17
2019-06-01T05:14:34.785Z,19.24
2019-06-01T05:19:37.256Z,19.40
2019-06-01T05:24:39.708Z,19.49
2019-06-01T05:29:42.172Z,19.55
2019-06-01T05:34:44.792Z,19.82
2019-06-01T05:39:47.261Z,20.10
2019-06-01T05:44:49.715Z,20.41
2019-06-01T05:49:52.174Z,20.94
2019-06-01T05:54:54.725Z,22.56
2019-06-01T05:59:57.190Z,25.63
2019-06-01T06:04:59.663Z,26.72
2019-06-01T06:10:02.385Z,27.24
2019-06-01T06:15:04.712Z,27.09
2019-06-01T06:20:07.190Z,27.16
2019-06-01T06:25:09.736Z,27.46
2019-06-01T06:30:12.807Z,27.81
2019-06-01T06:35:15.344Z,27.62
2019-06-01T06:40:18.002Z,27.52
2019-06-01T06:45:20.762Z,27.66
2019-06-01T06:50:23.461Z,27.74
2019-06-01T06:55:24.747Z,27.81
2019-06-01T07:00:27.237Z,27.85
2019-06-01T07:05:31.450Z,27.90
2019-06-01T07:10:32.174Z,27.97
2019-06-01T07:15:34.613Z,27.92
2019-06-01T07:20:37.092Z,27.93
2019-06-01T07:25:39.544Z,28.37
2019-06-01T07:30:50.348Z,28.37
2019-06-01T07:35:44.483Z,28.43
2019-06-01T07:40:46.982Z,28.52
2019-06-01T07:45:49.418Z,29.21
2019-06-01T07:50:51.878Z,29.79
2019-06-01T07:55:54.460Z,30.15
2019-06-01T08:00:56.925Z,30.56
2019-06-01T08:05:59.386Z,30.57
2019-06-01T08:11:01.869Z,30.89
2019-06-01T08:16:04.423Z,30.39
2019-06-01T08:21:06.890Z,31.06
2019-06-01T08:26:09.515Z,31.33
2019-06-01T08:31:11.851Z,31.56
2019-06-01T08:36:15.027Z,33.20
2019-06-01T08:41:17.467Z,35.59
2019-06-01T08:46:19.937Z,39.89
2019-06-01T08:51:23.820Z,47.94
2019-06-01T08:56:26.072Z,51.14
2019-06-01T09:01:28.625Z,52.41
2019-06-01T09:06:30.970Z,54.92
2019-06-01T09:11:33.286Z,58.60
2019-06-01T09:16:35.984Z,59.60
2019-06-01T09:21:37.373Z,61.57
2019-06-01T09:26:39.852Z,62.30
2019-06-01T09:31:42.370Z,61.27
2019-06-01T09:36:44.821Z,64.06
2019-06-01T09:41:47.286Z,64.25
2019-06-01T09:46:49.756Z,63.24
2019-06-01T09:51:52.251Z,62.27
2019-06-01T09:56:54.747Z,61.35
2019-06-01T10:01:57.273Z,61.91
2019-06-01T10:06:59.723Z,61.71
2019-06-01T10:12:02.178Z,60.94
2019-06-01T10:17:04.629Z,58.16
2019-06-01T10:22:07.099Z,48.98
2019-06-01T10:27:09.587Z,43.81
2019-06-01T10:32:12.200Z,41.78
2019-06-01T10:37:14.646Z,40.80
2019-06-01T10:42:17.108Z,38.48
2019-06-01T10:47:19.565Z,37.21
2019-06-01T10:52:22.031Z,35.72
2019-06-01T10:57:24.511Z,37.21
2019-06-01T11:02:26.995Z,36.99
2019-06-01T11:07:29.754Z,35.54
2019-06-01T11:12:32.974Z,35.56
2019-06-01T11:17:34.940Z,35.44
2019-06-01T11:22:37.598Z,35.40
2019-06-01T11:27:39.807Z,35.18
2019-06-01T11:32:43.630Z,35.47
2019-06-01T11:37:44.660Z,36.32
2019-06-01T11:42:47.125Z,35.81
2019-06-01T11:47:49.586Z,36.21
2019-06-01T11:52:52.068Z,35.85
2019-06-01T11:57:54.516Z,36.04
2019-06-01T12:02:56.981Z,36.41
2019-06-01T12:07:59.445Z,36.96
2019-06-01T12:13:02.586Z,38.66
2019-06-01T12:18:05.042Z,39.91
2019-06-01T12:23:07.558Z,42.06
2019-06-01T12:28:09.967Z,42.17
2019-06-01T12:33:12.470Z,45.27
2019-06-01T12:38:15.216Z,48.78
2019-06-01T12:43:17.695Z,51.22
2019-06-01T12:48:20.182Z,50.81
2019-06-01T12:53:22.666Z,47.94
2019-06-01T12:58:25.394Z,46.18
2019-06-01T13:03:27.852Z,44.59
2019-06-01T13:08:30.325Z,42.82
2019-06-01T13:13:32.780Z,42.09
2019-06-01T13:18:35.258Z,40.79
2019-06-01T13:23:37.730Z,39.87
2019-06-01T13:28:40.210Z,39.35
2019-06-01T13:33:42.696Z,39.01
2019-06-01T13:38:45.201Z,39.01
2019-06-01T13:43:47.687Z,38.82
2019-06-01T13:48:50.148Z,38.66
2019-06-01T13:53:52.988Z,38.97
2019-06-01T13:58:55.079Z,37.57
2019-06-01T14:03:57.555Z,35.76
2019-06-01T14:09:00.010Z,34.80
2019-06-01T14:14:02.490Z,34.10
2019-06-01T14:19:06.855Z,33.64
2019-06-01T14:24:07.492Z,33.24
2019-06-01T14:29:09.956Z,33.28
2019-06-01T14:34:12.424Z,32.68
2019-06-01T14:39:14.889Z,32.36
2019-06-01T14:44:17.361Z,32.33
2019-06-01T14:49:19.826Z,32.21
2019-06-01T14:54:22.329Z,31.90
2019-06-01T14:59:25.280Z,31.69
2019-06-01T15:04:27.750Z,31.76
2019-06-01T15:09:30.228Z,31.49
2019-06-01T15:14:32.708Z,31.14
2019-06-01T15:19:35.172Z,31.17
2019-06-01T15:24:37.651Z,30.93
2019-06-01T15:29:40.138Z,30.95
2019-06-01T15:34:42.595Z,30.86
2019-06-01T15:39:45.076Z,30.87
2019-06-01T15:44:47.550Z,30.71
2019-06-01T15:49:49.994Z,30.70
2019-06-01T15:54:52.465Z,30.57
2019-06-01T15:59:54.962Z,30.53
2019-06-01T16:04:57.425Z,30.38
2019-06-01T16:09:59.905Z,30.28
2019-06-01T16:15:02.371Z,30.16
2019-06-01T16:20:07.570Z,30.08
2019-06-01T16:25:10.107Z,29.91
2019-06-01T16:30:12.583Z,29.76
2019-06-01T16:35:15.237Z,29.77
2019-06-01T16:40:17.676Z,29.70
2019-06-01T16:45:20.144Z,29.51
2019-06-01T16:50:22.610Z,29.52
2019-06-01T16:55:25.250Z,29.60
2019-06-01T17:00:27.705Z,29.42
2019-06-01T17:05:30.179Z,29.34
2019-06-01T17:10:32.631Z,29.17
2019-06-01T17:15:35.097Z,29.00
2019-06-01T17:20:43.264Z,28.97
2019-06-01T17:25:45.714Z,28.88
2019-06-01T17:30:48.354Z,28.85
2019-06-01T17:35:50.658Z,28.98
2019-06-01T17:40:53.203Z,29.01
2019-06-01T17:45:55.588Z,28.92
2019-06-01T17:50:58.047Z,28.82
2019-06-01T17:56:01.857Z,28.56
2019-06-01T18:01:04.258Z,28.39
2019-06-01T18:06:05.883Z,28.04
2019-06-01T18:11:08.188Z,27.91
2019-06-01T18:16:10.542Z,27.76
2019-06-01T18:21:13.036Z,27.59
2019-06-01T18:26:15.552Z,27.31
2019-06-01T18:31:18.011Z,27.17
2019-06-01T18:36:20.463Z,27.05
2019-06-01T18:41:22.965Z,26.85
2019-06-01T18:46:25.640Z,26.61
2019-06-01T18:51:28.103Z,26.31
2019-06-01T18:56:30.563Z,26.12
2019-06-01T19:01:33.146Z,25.84
2019-06-01T19:06:35.650Z,25.59
2019-06-01T19:11:38.103Z,25.33
2019-06-01T19:16:40.639Z,25.00
2019-06-01T19:21:43.139Z,24.86
2019-06-01T19:26:45.607Z,24.75
2019-06-01T19:31:48.055Z,24.47
2019-06-01T19:36:50.534Z,24.14
2019-06-01T19:41:53.048Z,24.07
2019-06-01T19:46:55.664Z,23.82
2019-06-01T19:51:58.136Z,23.67
2019-06-01T19:57:00.602Z,23.38
2019-06-01T20:02:03.059Z,23.34
2019-06-01T20:07:05.672Z,23.10
2019-06-01T20:12:12.887Z,23.17
2019-06-01T20:17:11.725Z,23.02
2019-06-01T20:22:13.139Z,22.85
2019-06-01T20:27:15.595Z,22.68
2019-06-01T20:32:18.180Z,22.56
2019-06-01T20:37:20.635Z,22.43
2019-06-01T20:42:32.077Z,22.30
2019-06-01T20:47:25.653Z,22.20
2019-06-01T20:52:28.268Z,22.12
2019-06-01T20:57:30.750Z,21.95
2019-06-01T21:02:33.212Z,21.80
2019-06-01T21:07:35.705Z,21.66
2019-06-01T21:12:46.218Z,21.62
2019-06-01T21:17:40.674Z,21.51
2019-06-01T21:22:43.146Z,21.42
2019-06-01T21:27:45.625Z,21.34
2019-06-01T21:32:48.135Z,21.22
2019-06-01T21:37:50.589Z,21.21
2019-06-01T21:43:03.207Z,21.01
2019-06-01T21:47:55.626Z,20.92
2019-06-01T21:52:58.090Z,20.91
2019-06-01T21:58:00.565Z,20.82
2019-06-01T22:03:03.038Z,20.78
2019-06-01T22:08:05.495Z,20.66
2019-06-01T22:13:18.309Z,20.53
2019-06-01T22:18:10.504Z,20.42
2019-06-01T22:23:12.942Z,20.37
2019-06-01T22:28:15.414Z,20.32
2019-06-01T22:33:20.079Z,20.31
2019-06-01T22:38:21.392Z,20.21
2019-06-01T22:43:39.272Z,20.09
2019-06-01T22:48:26.607Z,20.08
2019-06-01T22:53:28.311Z,20.04
2019-06-01T22:58:31.542Z,20.00
2019-06-01T23:03:32.768Z,20.01
2019-06-01T23:08:35.242Z,19.97
2019-06-01T23:13:52.385Z,19.90
2019-06-01T23:18:40.136Z,19.94
2019-06-01T23:23:42.612Z,20.04
2019-06-01T23:28:45.064Z,19.96
2019-06-01T23:33:47.556Z,20.00
2019-06-01T23:38:50.015Z,20.01
2019-06-01T23:44:07.795Z,19.89
2019-06-01T23:48:54.969Z,19.92
2019-06-01T23:53:57.444Z,19.86
2019-06-01T23:58:59.908Z,19.58
